Time;durP1;ratioP1;P1;durP2;ratioP2;P2;SDS_P1;SDS_P2;PMS_P1;PMS_P2;Temp;Humidity;BMP_temperature;BMP_pressure;BME280_temperature;BME280_humidity;BME280_pressure;Samples;Min_cycle;Max_cycle;Signal;HPM_P1;HPM_P2
2022/02/05 00:00:17;;;;;;;0.20;0.20;;;;;;;;;;1836363;78;26366;-37
2022/02/05 00:02:21;;;;;;;0.20;0.20;;;;;;;;;;1828501;78;26270;-37
2022/02/05 00:04:49;;;;;;;0.40;0.40;;;;;;;;;;1823674;78;26317;-37
2022/02/05 00:07:17;;;;;;;1.07;0.20;;;;;;;;;;1836453;77;26717;-37
2022/02/05 00:10:23;;;;;;;0.40;0.35;;;;;;;;;;1836227;78;26344;-37
2022/02/05 00:12:52;;;;;;;0.20;0.20;;;;;;;;;;1831437;78;26272;-37
2022/02/05 00:33:13;;;;;;;0.20;0.20;;;;;;;;;;1837118;78;26374;-37
2022/02/05 00:39:50;;;;;;;0.42;0.42;;;;;;;;;;1833659;78;26395;-38
2022/02/05 00:42:10;;;;;;;0.30;0.30;;;;;;;;;;1832391;77;26444;-37
2022/02/05 00:44:34;;;;;;;0.20;0.20;;;;;;;;;;1829083;78;26277;-38
2022/02/05 00:47:02;;;;;;;0.30;0.30;;;;;;;;;;1837644;78;26748;-39
2022/02/05 00:49:29;;;;;;;0.20;0.20;;;;;;;;;;1837594;78;26315;-38
2022/02/05 00:52:06;;;;;;;0.30;0.20;;;;;;;;;;1837684;77;26268;-40
2022/02/05 00:54:27;;;;;;;0.23;0.23;;;;;;;;;;1835652;78;26343;-37
2022/02/05 00:59:32;;;;;;;0.20;0.20;;;;;;;;;;1837398;78;26830;-39
2022/02/05 01:01:59;;;;;;;0.42;0.30;;;;;;;;;;1837162;78;26201;-38
2022/02/05 01:04:27;;;;;;;0.30;0.30;;;;;;;;;;1836954;77;26264;-37
2022/02/05 01:06:54;;;;;;;0.25;0.17;;;;;;;;;;1837806;77;26268;-38
2022/02/05 01:09:25;;;;;;;0.20;0.20;;;;;;;;;;1837569;77;26224;-38
2022/02/05 01:11:51;;;;;;;0.28;0.28;;;;;;;;;;1837385;78;26318;-38
2022/02/05 01:14:23;;;;;;;0.42;0.28;;;;;;;;;;1837735;77;26613;-38
2022/02/05 01:20:24;;;;;;;0.30;0.30;;;;;;;;;;1829278;76;26312;-37
2022/02/05 01:21:55;;;;;;;0.20;0.20;;;;;;;;;;1807741;78;26371;-37
2022/02/05 01:24:22;;;;;;;0.20;0.20;;;;;;;;;;1836729;78;26269;-38
2022/02/05 01:27:03;;;;;;;0.20;0.20;;;;;;;;;;1837527;78;26776;-37
2022/02/05 01:32:03;;;;;;;0.20;0.20;;;;;;;;;;1820190;78;26275;-37
2022/02/05 01:50:50;;;;;;;0.20;0.20;;;;;;;;;;1836919;78;26335;-37
2022/02/05 01:53:14;;;;;;;0.20;0.20;;;;;;;;;;1827367;78;26351;-38
2022/02/05 01:58:27;;;;;;;0.28;0.28;;;;;;;;;;1834407;76;26787;-40
2022/02/05 02:06:32;;;;;;;0.75;0.28;;;;;;;;;;1834003;78;26768;-39
2022/02/05 02:12:02;;;;;;;0.23;0.23;;;;;;;;;;1839902;77;26364;-39
2022/02/05 02:14:36;;;;;;;0.90;0.53;;;;;;;;;;1841214;78;26716;-38
2022/02/05 02:17:25;;;;;;;0.23;0.23;;;;;;;;;;1841494;78;26378;-38
2022/02/05 02:22:12;;;;;;;0.33;0.30;;;;;;;;;;1830164;78;26311;-38
2022/02/05 02:27:17;;;;;;;0.20;0.20;;;;;;;;;;1844191;76;26335;-39
2022/02/05 02:29:50;;;;;;;0.20;0.20;;;;;;;;;;1841141;78;26753;-37
2022/02/05 02:32:04;;;;;;;0.30;0.20;;;;;;;;;;1851684;76;25909;-41
2022/02/05 02:34:37;;;;;;;0.30;0.20;;;;;;;;;;1834696;78;26735;-38
2022/02/05 02:37:11;;;;;;;0.20;0.20;;;;;;;;;;1847384;76;26386;-38
2022/02/05 02:42:17;;;;;;;0.15;0.15;;;;;;;;;;1831191;78;26220;-38
2022/02/05 02:44:45;;;;;;;0.28;0.28;;;;;;;;;;1843881;76;27160;-38
2022/02/05 02:47:13;;;;;;;0.20;0.20;;;;;;;;;;1843235;78;26288;-39
2022/02/05 02:57:58;;;;;;;0.30;0.30;;;;;;;;;;1823109;78;26811;-37
2022/02/05 03:00:20;;;;;;;0.20;0.20;;;;;;;;;;1840480;78;26296;-38
2022/02/05 03:02:48;;;;;;;0.23;0.23;;;;;;;;;;1828299;77;26293;-37
2022/02/05 03:05:15;;;;;;;0.28;0.23;;;;;;;;;;1833631;76;26446;-37
2022/02/05 03:07:43;;;;;;;0.33;0.33;;;;;;;;;;1834358;78;26205;-38
2022/02/05 03:10:10;;;;;;;0.20;0.20;;;;;;;;;;1830764;78;26318;-37
2022/02/05 03:12:37;;;;;;;0.15;0.15;;;;;;;;;;1833533;76;26299;-41
2022/02/05 03:15:06;;;;;;;0.80;0.20;;;;;;;;;;1837610;78;26256;-38
2022/02/05 03:17:40;;;;;;;0.20;0.20;;;;;;;;;;1819406;78;26260;-37
2022/02/05 03:20:06;;;;;;;0.17;0.17;;;;;;;;;;1837130;78;26327;-41
2022/02/05 03:22:34;;;;;;;0.28;0.28;;;;;;;;;;1813246;76;27383;-37
2022/02/05 03:25:01;;;;;;;0.30;0.20;;;;;;;;;;1837139;76;26268;-39
2022/02/05 03:27:29;;;;;;;0.82;0.30;;;;;;;;;;1834153;78;26764;-37
2022/02/05 03:29:56;;;;;;;0.30;0.30;;;;;;;;;;1832357;77;26794;-38
2022/02/05 03:32:24;;;;;;;0.13;0.13;;;;;;;;;;1810430;78;26904;-37
2022/02/05 03:34:52;;;;;;;1.10;0.20;;;;;;;;;;1830864;77;26749;-38
2022/02/05 03:37:20;;;;;;;0.20;0.20;;;;;;;;;;1837604;77;26292;-39
2022/02/05 03:39:48;;;;;;;0.20;0.20;;;;;;;;;;1827098;77;26358;-39
2022/02/05 03:42:16;;;;;;;0.30;0.20;;;;;;;;;;1837706;77;26775;-40
2022/02/05 03:44:43;;;;;;;0.17;0.17;;;;;;;;;;1804423;77;26299;-38
2022/02/05 03:47:11;;;;;;;0.20;0.20;;;;;;;;;;1813843;77;26751;-38
2022/02/05 03:49:39;;;;;;;0.40;0.30;;;;;;;;;;1837815;78;26300;-38
2022/02/05 03:52:06;;;;;;;1.07;0.23;;;;;;;;;;1836479;78;26241;-39
2022/02/05 03:54:35;;;;;;;0.10;0.10;;;;;;;;;;1800169;78;26690;-37
2022/02/05 03:57:02;;;;;;;0.20;0.20;;;;;;;;;;1827973;76;26259;-37
2022/02/05 03:59:30;;;;;;;0.65;0.20;;;;;;;;;;1828814;78;26733;-38
2022/02/05 04:01:57;;;;;;;0.20;0.20;;;;;;;;;;1829240;78;26261;-37
2022/02/05 04:04:27;;;;;;;0.10;0.10;;;;;;;;;;1832222;76;26254;-37
2022/02/05 04:06:53;;;;;;;0.28;0.28;;;;;;;;;;1834570;78;26742;-37
2022/02/05 04:09:29;;;;;;;0.20;0.20;;;;;;;;;;1827877;78;26668;-37
2022/02/05 04:17:04;;;;;;;0.23;0.20;;;;;;;;;;1796919;79;26670;-38
2022/02/05 04:19:31;;;;;;;1.45;0.23;;;;;;;;;;1790090;79;26346;-41
2022/02/05 04:21:59;;;;;;;0.10;0.10;;;;;;;;;;1801239;79;26812;-38
2022/02/05 04:24:26;;;;;;;0.28;0.28;;;;;;;;;;1813639;79;26262;-39
2022/02/05 04:26:54;;;;;;;0.35;0.35;;;;;;;;;;1813996;79;26258;-37
2022/02/05 04:29:21;;;;;;;0.30;0.30;;;;;;;;;;1813786;79;26792;-39
2022/02/05 04:31:48;;;;;;;0.20;0.20;;;;;;;;;;1795577;79;26294;-39
2022/02/05 04:34:15;;;;;;;0.20;0.20;;;;;;;;;;1813301;79;26294;-39
2022/02/05 04:36:43;;;;;;;0.20;0.20;;;;;;;;;;1798164;79;26200;-39
2022/02/05 04:39:14;;;;;;;0.57;0.23;;;;;;;;;;1809205;79;25237;-38
2022/02/05 04:41:47;;;;;;;0.33;0.30;;;;;;;;;;1806857;79;26333;-38
2022/02/05 04:44:21;;;;;;;0.42;0.30;;;;;;;;;;1812065;79;26283;-45
2022/02/05 04:50:08;;;;;;;0.20;0.20;;;;;;;;;;1805902;79;26347;-37
2022/02/05 04:54:57;;;;;;;0.20;0.20;;;;;;;;;;1779202;79;26279;-37
2022/02/05 05:00:09;;;;;;;0.20;0.20;;;;;;;;;;1789380;79;26691;-37
2022/02/05 05:02:40;;;;;;;0.40;0.40;;;;;;;;;;1804126;79;26802;-37
2022/02/05 05:20:13;;;;;;;0.10;0.10;;;;;;;;;;1783311;78;26233;-39
2022/02/05 05:22:40;;;;;;;0.20;0.20;;;;;;;;;;1825260;78;26748;-38
2022/02/05 05:25:08;;;;;;;0.20;0.20;;;;;;;;;;1827041;78;26777;-38
2022/02/05 05:27:37;;;;;;;0.30;0.30;;;;;;;;;;1819087;78;26377;-37
2022/02/05 05:30:05;;;;;;;0.37;0.37;;;;;;;;;;1830664;78;26867;-38
2022/02/05 05:32:33;;;;;;;0.25;0.25;;;;;;;;;;1830813;77;26304;-38
2022/02/05 05:35:00;;;;;;;0.45;0.30;;;;;;;;;;1836652;76;26292;-41
2022/02/05 05:37:28;;;;;;;0.30;0.30;;;;;;;;;;1834221;78;26268;-38
2022/02/05 05:39:55;;;;;;;0.30;0.30;;;;;;;;;;1820441;78;26346;-38
2022/02/05 05:42:27;;;;;;;0.23;0.23;;;;;;;;;;1831045;78;26417;-38
2022/02/05 05:50:00;;;;;;;0.20;0.20;;;;;;;;;;1831211;78;26446;-39
2022/02/05 05:52:28;;;;;;;0.20;0.20;;;;;;;;;;1830197;78;25718;-39
2022/02/05 05:54:55;;;;;;;0.30;0.30;;;;;;;;;;1807697;77;26275;-39
2022/02/05 05:57:22;;;;;;;0.30;0.30;;;;;;;;;;1831424;77;26292;-39
2022/02/05 05:59:50;;;;;;;0.40;0.30;;;;;;;;;;1837806;78;26217;-38
2022/02/05 06:02:17;;;;;;;0.30;0.20;;;;;;;;;;1828776;78;26318;-39
2022/02/05 06:04:45;;;;;;;0.33;0.33;;;;;;;;;;1822793;78;26837;-38
2022/02/05 06:07:12;;;;;;;0.35;0.35;;;;;;;;;;1825069;77;26401;-41
2022/02/05 06:09:43;;;;;;;0.40;0.40;;;;;;;;;;1818847;76;26331;-37
2022/02/05 06:12:10;;;;;;;0.20;0.20;;;;;;;;;;1836734;77;26386;-37
2022/02/05 06:14:38;;;;;;;0.30;0.30;;;;;;;;;;1812763;78;26302;-38
2022/02/05 06:17:09;;;;;;;0.20;0.20;;;;;;;;;;1812593;79;26627;-38
2022/02/05 06:19:36;;;;;;;0.20;0.20;;;;;;;;;;1813532;79;26302;-38
2022/02/05 06:22:04;;;;;;;0.30;0.30;;;;;;;;;;1799538;79;26269;-38
2022/02/05 06:24:31;;;;;;;0.88;0.40;;;;;;;;;;1806194;79;26267;-37
2022/02/05 06:26:59;;;;;;;1.10;0.20;;;;;;;;;;1809049;79;26380;-38
2022/02/05 06:29:26;;;;;;;0.55;0.30;;;;;;;;;;1805796;79;26420;-41
2022/02/05 06:31:53;;;;;;;0.45;0.30;;;;;;;;;;1813346;79;26821;-39
2022/02/05 06:34:21;;;;;;;0.20;0.20;;;;;;;;;;1804485;79;26309;-38
2022/02/05 06:36:48;;;;;;;0.35;0.35;;;;;;;;;;1797431;79;26339;-39
2022/02/05 06:39:15;;;;;;;0.30;0.20;;;;;;;;;;1809284;79;26215;-42
2022/02/05 06:41:43;;;;;;;0.80;0.30;;;;;;;;;;1804889;79;26278;-41
2022/02/05 06:44:11;;;;;;;0.30;0.30;;;;;;;;;;1799320;79;26809;-38
2022/02/05 06:46:39;;;;;;;0.55;0.33;;;;;;;;;;1795293;79;26291;-37
2022/02/05 06:49:07;;;;;;;0.55;0.33;;;;;;;;;;1790453;79;26306;-38
2022/02/05 06:51:34;;;;;;;1.75;0.47;;;;;;;;;;1797985;79;26839;-38
2022/02/05 06:54:02;;;;;;;0.17;0.17;;;;;;;;;;1812839;79;26255;-38
2022/02/05 06:56:29;;;;;;;0.20;0.20;;;;;;;;;;1813435;79;26270;-39
2022/02/05 06:58:56;;;;;;;0.90;0.40;;;;;;;;;;1805348;78;26290;-38
2022/02/05 07:01:24;;;;;;;0.45;0.37;;;;;;;;;;1806669;79;26834;-41
2022/02/05 07:03:51;;;;;;;0.20;0.20;;;;;;;;;;1800471;78;26341;-38
2022/02/05 07:06:18;;;;;;;0.30;0.30;;;;;;;;;;1813761;79;26302;-40
2022/02/05 07:08:46;;;;;;;1.95;0.33;;;;;;;;;;1813545;79;26282;-37
2022/02/05 07:11:13;;;;;;;0.40;0.40;;;;;;;;;;1799095;79;25737;-38
2022/02/05 07:13:40;;;;;;;0.10;0.10;;;;;;;;;;1824027;77;26784;-38
2022/02/05 07:16:19;;;;;;;0.53;0.33;;;;;;;;;;1818778;76;26345;-37
2022/02/05 07:18:56;;;;;;;0.30;0.30;;;;;;;;;;1836728;78;26796;-38
2022/02/05 07:21:27;;;;;;;0.20;0.20;;;;;;;;;;1833439;76;26830;-38
2022/02/05 07:29:14;;;;;;;2.05;0.35;;;;;;;;;;1833760;76;26359;-37
2022/02/05 07:31:43;;;;;;;2.33;0.37;;;;;;;;;;1837020;78;26304;-40
2022/02/05 07:34:11;;;;;;;1.85;0.30;;;;;;;;;;1834476;77;26738;-37
2022/02/05 07:36:40;;;;;;;2.47;0.62;;;;;;;;;;1821449;77;26825;-39
2022/02/05 07:39:08;;;;;;;0.55;0.28;;;;;;;;;;1830545;77;26798;-39
2022/02/05 07:41:36;;;;;;;0.35;0.35;;;;;;;;;;1832545;76;26292;-38
2022/02/05 07:44:04;;;;;;;2.12;0.30;;;;;;;;;;1821551;76;26490;-38
2022/02/05 07:46:31;;;;;;;4.75;0.40;;;;;;;;;;1825745;77;26645;-37
2022/02/05 07:48:59;;;;;;;0.93;0.50;;;;;;;;;;1831428;77;28676;-38
2022/02/05 07:51:26;;;;;;;0.47;0.40;;;;;;;;;;1836097;78;26739;-38
2022/02/05 07:53:53;;;;;;;0.45;0.33;;;;;;;;;;1831902;77;26269;-38
2022/02/05 07:56:20;;;;;;;0.33;0.33;;;;;;;;;;1832791;77;26420;-38
2022/02/05 07:58:48;;;;;;;1.15;0.40;;;;;;;;;;1832388;76;26675;-38
2022/02/05 08:01:15;;;;;;;4.87;0.37;;;;;;;;;;1839495;76;26736;-38
2022/02/05 08:03:42;;;;;;;0.45;0.45;;;;;;;;;;1835625;78;26350;-39
2022/02/05 08:06:15;;;;;;;2.00;0.70;;;;;;;;;;1822053;78;28210;-38
2022/02/05 08:08:38;;;;;;;0.72;0.55;;;;;;;;;;1836179;78;26288;-38
2022/02/05 08:11:10;;;;;;;6.42;0.70;;;;;;;;;;1837251;77;26229;-38
2022/02/05 08:13:35;;;;;;;1.10;0.50;;;;;;;;;;1836792;78;26454;-38
2022/02/05 08:16:13;;;;;;;2.20;0.60;;;;;;;;;;1843945;77;26296;-38
2022/02/05 08:18:39;;;;;;;2.20;0.55;;;;;;;;;;1832631;78;26339;-38
2022/02/05 08:21:06;;;;;;;1.92;0.70;;;;;;;;;;1826664;76;26358;-40
2022/02/05 08:23:34;;;;;;;1.37;0.90;;;;;;;;;;1843313;78;26280;-41
2022/02/05 08:26:01;;;;;;;0.53;0.53;;;;;;;;;;1832245;76;26212;-38
2022/02/05 08:28:29;;;;;;;2.50;0.53;;;;;;;;;;1842059;78;26755;-38
2022/02/05 08:30:56;;;;;;;0.65;0.45;;;;;;;;;;1825899;78;26303;-38
2022/02/05 08:33:24;;;;;;;1.05;0.50;;;;;;;;;;1843488;76;26735;-38
2022/02/05 08:35:51;;;;;;;6.97;0.70;;;;;;;;;;1842382;76;26667;-37
2022/02/05 08:38:19;;;;;;;3.10;0.50;;;;;;;;;;1837037;76;26711;-36
2022/02/05 08:40:47;;;;;;;0.47;0.40;;;;;;;;;;1843797;76;26739;-39
2022/02/05 08:43:14;;;;;;;1.32;0.40;;;;;;;;;;1839083;76;26256;-38
2022/02/05 08:45:41;;;;;;;2.25;0.70;;;;;;;;;;1838894;78;26326;-38
2022/02/05 08:48:09;;;;;;;0.93;0.53;;;;;;;;;;1836652;78;26789;-38
2022/02/05 08:50:36;;;;;;;2.90;0.47;;;;;;;;;;1842653;78;26724;-38
2022/02/05 08:53:03;;;;;;;0.50;0.50;;;;;;;;;;1843901;78;26252;-38
2022/02/05 08:55:32;;;;;;;1.37;0.50;;;;;;;;;;1835246;76;26319;-38
2022/02/05 08:58:02;;;;;;;0.53;0.53;;;;;;;;;;1834903;76;26318;-39
2022/02/05 09:00:29;;;;;;;0.60;0.60;;;;;;;;;;1842783;78;26347;-37
2022/02/05 09:03:02;;;;;;;0.55;0.42;;;;;;;;;;1842663;76;26288;-38
2022/02/05 09:08:10;;;;;;;0.55;0.45;;;;;;;;;;1843844;76;26375;-38
2022/02/05 09:10:48;;;;;;;1.02;0.57;;;;;;;;;;1843487;76;26346;-39
2022/02/05 09:13:14;;;;;;;0.65;0.47;;;;;;;;;;1837705;76;26446;-38
2022/02/05 09:15:37;;;;;;;0.68;0.60;;;;;;;;;;1830069;76;26358;-35
2022/02/05 09:18:04;;;;;;;0.53;0.42;;;;;;;;;;1829292;76;26300;-36
2022/02/05 09:20:32;;;;;;;2.10;0.50;;;;;;;;;;1832223;76;26325;-35
2022/02/05 09:23:01;;;;;;;2.05;0.50;;;;;;;;;;1830297;76;26257;-36
2022/02/05 09:25:29;;;;;;;0.85;0.55;;;;;;;;;;1833132;76;27284;-36
2022/02/05 09:27:57;;;;;;;1.37;0.45;;;;;;;;;;1809736;76;26676;-35
2022/02/05 09:30:44;;;;;;;3.20;0.50;;;;;;;;;;1833561;77;26346;-36
2022/02/05 09:32:59;;;;;;;0.75;0.60;;;;;;;;;;1830135;76;26370;-35
2022/02/05 09:35:26;;;;;;;0.33;0.33;;;;;;;;;;1834322;76;26280;-36
2022/02/05 09:37:53;;;;;;;1.17;0.50;;;;;;;;;;1830079;76;26283;-37
2022/02/05 09:40:21;;;;;;;1.35;0.47;;;;;;;;;;1837174;76;26292;-36
2022/02/05 09:42:50;;;;;;;0.78;0.50;;;;;;;;;;1833358;78;26386;-36
2022/02/05 09:45:18;;;;;;;1.00;0.40;;;;;;;;;;1813165;77;26357;-36
2022/02/05 09:47:45;;;;;;;0.68;0.60;;;;;;;;;;1830906;76;26402;-39
2022/02/05 09:50:13;;;;;;;1.07;0.50;;;;;;;;;;1839375;77;26827;-37
2022/02/05 09:52:40;;;;;;;0.50;0.50;;;;;;;;;;1819015;77;26280;-38
2022/02/05 09:55:08;;;;;;;0.50;0.50;;;;;;;;;;1828655;77;26594;-36
2022/02/05 09:57:36;;;;;;;1.20;0.40;;;;;;;;;;1843571;76;25654;-36
2022/02/05 10:00:04;;;;;;;0.57;0.50;;;;;;;;;;1830445;77;26860;-37
2022/02/05 10:02:37;;;;;;;2.17;0.55;;;;;;;;;;1831251;78;26328;-36
2022/02/05 10:05:10;;;;;;;0.23;0.23;;;;;;;;;;1830658;76;26354;-36
2022/02/05 10:07:54;;;;;;;0.42;0.42;;;;;;;;;;1833509;76;26314;-36
2022/02/05 10:10:21;;;;;;;0.50;0.50;;;;;;;;;;1831247;78;26276;-36
2022/02/05 10:13:09;;;;;;;0.60;0.60;;;;;;;;;;1831324;76;26755;-36
2022/02/05 10:15:36;;;;;;;0.45;0.45;;;;;;;;;;1828105;77;26305;-37
2022/02/05 10:18:04;;;;;;;0.82;0.53;;;;;;;;;;1823143;77;26266;-36
2022/02/05 10:20:31;;;;;;;0.60;0.60;;;;;;;;;;1839984;77;26217;-36
2022/02/05 10:23:00;;;;;;;0.47;0.40;;;;;;;;;;1827709;76;26727;-36
2022/02/05 10:25:29;;;;;;;1.20;0.70;;;;;;;;;;1842482;76;27505;-38
2022/02/05 10:27:56;;;;;;;0.40;0.40;;;;;;;;;;1848437;77;26268;-36
2022/02/05 10:30:27;;;;;;;0.72;0.70;;;;;;;;;;1815976;76;26287;-36
2022/02/05 10:33:26;;;;;;;0.80;0.80;;;;;;;;;;1834375;78;26338;-36
2022/02/05 10:36:01;;;;;;;0.50;0.50;;;;;;;;;;1841209;77;26319;-37
2022/02/05 10:38:47;;;;;;;0.95;0.60;;;;;;;;;;1830002;77;26337;-38
2022/02/05 10:43:00;;;;;;;0.85;0.47;;;;;;;;;;1824111;78;25352;-38
2022/02/05 10:43:33;;;;;;;0.60;0.60;;;;;;;;;;1830549;78;26418;-38
2022/02/05 10:46:02;;;;;;;0.50;0.50;;;;;;;;;;1839680;77;26270;-38
2022/02/05 10:48:29;;;;;;;0.85;0.65;;;;;;;;;;1836199;77;26305;-38
2022/02/05 10:50:59;;;;;;;0.53;0.53;;;;;;;;;;1845026;77;26740;-39
2022/02/05 10:53:38;;;;;;;0.85;0.60;;;;;;;;;;1843960;77;26777;-36
2022/02/05 11:06:58;;;;;;;0.88;0.37;;;;;;;;;;1813124;78;26405;-36
2022/02/05 11:09:26;;;;;;;0.55;0.55;;;;;;;;;;1828230;78;26550;-39
2022/02/05 11:15:04;;;;;;;0.30;0.30;;;;;;;;;;1835910;77;26364;-36
2022/02/05 11:20:07;;;;;;;0.35;0.35;;;;;;;;;;1836804;77;26277;-35
2022/02/05 11:22:36;;;;;;;0.55;0.55;;;;;;;;;;1834779;78;26799;-35
2022/02/05 11:25:04;;;;;;;0.47;0.47;;;;;;;;;;1832742;78;26277;-35
2022/02/05 11:27:32;;;;;;;0.55;0.55;;;;;;;;;;1822018;78;26303;-39
2022/02/05 11:30:17;;;;;;;0.42;0.42;;;;;;;;;;1840188;76;26277;-35
2022/02/05 11:32:50;;;;;;;1.42;0.47;;;;;;;;;;1831129;78;26554;-35
2022/02/05 11:35:30;;;;;;;0.40;0.40;;;;;;;;;;1831747;77;26979;-35
2022/02/05 11:37:54;;;;;;;0.60;0.60;;;;;;;;;;1828675;78;26405;-36
2022/02/05 11:40:26;;;;;;;0.42;0.40;;;;;;;;;;1826710;78;26278;-36
2022/02/05 11:42:55;;;;;;;0.30;0.30;;;;;;;;;;1797341;78;25694;-36
2022/02/05 11:45:27;;;;;;;0.50;0.50;;;;;;;;;;1838635;77;26660;-36
2022/02/05 11:47:56;;;;;;;0.40;0.40;;;;;;;;;;1832491;77;26305;-36
2022/02/05 11:50:25;;;;;;;0.88;0.70;;;;;;;;;;1843195;77;26438;-36
2022/02/05 11:52:53;;;;;;;0.30;0.30;;;;;;;;;;1834218;77;26303;-36
2022/02/05 11:55:30;;;;;;;0.50;0.50;;;;;;;;;;1830840;78;26319;-37
2022/02/05 11:57:58;;;;;;;0.82;0.42;;;;;;;;;;1833443;78;25629;-36
2022/02/05 12:00:33;;;;;;;1.05;0.40;;;;;;;;;;1837168;77;26300;-36
2022/02/05 12:03:04;;;;;;;0.50;0.50;;;;;;;;;;1826588;77;26285;-35
2022/02/05 12:05:38;;;;;;;1.10;0.75;;;;;;;;;;1832772;76;26327;-37
2022/02/05 12:08:08;;;;;;;0.60;0.60;;;;;;;;;;1828359;78;26284;-37
2022/02/05 12:10:41;;;;;;;0.50;0.50;;;;;;;;;;1836134;78;26300;-37
2022/02/05 12:13:16;;;;;;;0.50;0.50;;;;;;;;;;1839409;76;26287;-36
2022/02/05 12:15:44;;;;;;;0.70;0.53;;;;;;;;;;1828214;76;26338;-37
2022/02/05 12:21:05;;;;;;;0.50;0.50;;;;;;;;;;1840744;76;26350;-37
2022/02/05 12:24:14;;;;;;;1.02;0.60;;;;;;;;;;1845161;76;26443;-38
2022/02/05 12:26:35;;;;;;;0.82;0.60;;;;;;;;;;1829338;77;26798;-39
2022/02/05 12:29:00;;;;;;;0.57;0.57;;;;;;;;;;1840014;76;26740;-36
2022/02/05 12:31:33;;;;;;;0.50;0.50;;;;;;;;;;1827258;76;25788;-37
2022/02/05 12:33:59;;;;;;;0.40;0.40;;;;;;;;;;1839102;77;26329;-38
2022/02/05 12:36:28;;;;;;;0.70;0.60;;;;;;;;;;1839787;76;26360;-37
2022/02/05 12:38:57;;;;;;;0.55;0.55;;;;;;;;;;1842374;77;26746;-36
2022/02/05 12:41:26;;;;;;;0.70;0.70;;;;;;;;;;1840967;76;26284;-39
2022/02/05 12:43:54;;;;;;;1.60;0.47;;;;;;;;;;1839504;76;26682;-37
2022/02/05 12:46:23;;;;;;;0.85;0.85;;;;;;;;;;1832163;76;26337;-41
2022/02/05 12:48:56;;;;;;;0.98;0.95;;;;;;;;;;1831566;78;26291;-37
2022/02/05 12:51:20;;;;;;;1.12;0.75;;;;;;;;;;1824705;76;26363;-36
2022/02/05 12:53:48;;;;;;;0.88;0.88;;;;;;;;;;1823029;78;26711;-37
2022/02/05 12:56:20;;;;;;;1.67;1.05;;;;;;;;;;1809997;79;26255;-39
2022/02/05 12:58:52;;;;;;;0.75;0.75;;;;;;;;;;1843571;77;26338;-37
2022/02/05 13:01:19;;;;;;;0.80;0.80;;;;;;;;;;1838516;77;26334;-37
2022/02/05 13:03:47;;;;;;;2.02;1.20;;;;;;;;;;1839473;77;26381;-38
2022/02/05 13:06:21;;;;;;;1.00;0.90;;;;;;;;;;1842922;77;26337;-40
2022/02/05 13:08:51;;;;;;;1.42;1.10;;;;;;;;;;1838138;76;26268;-38
2022/02/05 13:11:20;;;;;;;0.95;0.95;;;;;;;;;;1844139;77;26804;-39
2022/02/05 13:13:52;;;;;;;0.90;0.90;;;;;;;;;;1841919;77;26771;-38
2022/02/05 13:16:21;;;;;;;1.67;1.10;;;;;;;;;;1826308;76;26302;-37
2022/02/05 13:19:07;;;;;;;0.70;0.70;;;;;;;;;;1814348;79;26380;-38
2022/02/05 13:27:12;;;;;;;1.77;1.10;;;;;;;;;;1809537;78;26410;-38
2022/02/05 13:29:53;;;;;;;1.42;0.90;;;;;;;;;;1833824;78;26721;-38
2022/02/05 13:34:42;;;;;;;0.80;0.80;;;;;;;;;;1809121;79;26290;-36
2022/02/05 13:37:25;;;;;;;0.80;0.80;;;;;;;;;;1800692;78;26351;-37
2022/02/05 13:39:53;;;;;;;1.52;0.68;;;;;;;;;;1811949;78;26321;-37
2022/02/05 13:42:18;;;;;;;0.98;0.90;;;;;;;;;;1817064;78;26225;-38
2022/02/05 13:44:54;;;;;;;0.80;0.80;;;;;;;;;;1795920;78;26987;-36
2022/02/05 13:47:23;;;;;;;0.70;0.70;;;;;;;;;;1812194;79;26319;-38
2022/02/05 13:50:10;;;;;;;2.67;1.00;;;;;;;;;;1822973;78;26311;-36
2022/02/05 13:52:39;;;;;;;0.78;0.78;;;;;;;;;;1796036;79;26330;-37
2022/02/05 13:55:13;;;;;;;2.15;1.00;;;;;;;;;;1799107;79;26238;-38
2022/02/05 13:57:59;;;;;;;1.02;0.98;;;;;;;;;;1808198;78;26782;-36
2022/02/05 14:00:43;;;;;;;2.08;0.80;;;;;;;;;;1813964;78;26731;-37
2022/02/05 14:03:11;;;;;;;0.90;0.90;;;;;;;;;;1810554;79;26306;-37
2022/02/05 14:05:49;;;;;;;1.22;0.80;;;;;;;;;;1818017;78;26820;-37
2022/02/05 14:08:26;;;;;;;0.72;0.70;;;;;;;;;;1790903;78;26687;-37
2022/02/05 14:10:57;;;;;;;0.95;0.68;;;;;;;;;;1806482;78;26364;-37
2022/02/05 14:13:24;;;;;;;0.80;0.70;;;;;;;;;;1805016;78;26778;-38
2022/02/05 14:15:57;;;;;;;2.10;0.50;;;;;;;;;;1805749;77;26797;-37
2022/02/05 14:18:25;;;;;;;0.70;0.70;;;;;;;;;;1799768;78;26668;-38
2022/02/05 14:20:56;;;;;;;0.80;0.80;;;;;;;;;;1803905;79;26265;-39
2022/02/05 14:23:25;;;;;;;0.93;0.60;;;;;;;;;;1810841;78;26668;-36
2022/02/05 14:26:01;;;;;;;1.47;0.70;;;;;;;;;;1812255;78;26309;-36
2022/02/05 14:28:43;;;;;;;0.42;0.42;;;;;;;;;;1808786;78;26872;-38
2022/02/05 14:33:49;;;;;;;0.55;0.55;;;;;;;;;;1807639;78;26286;-39
2022/02/05 14:36:37;;;;;;;0.60;0.60;;;;;;;;;;1811687;78;26802;-37
2022/02/05 14:41:23;;;;;;;0.57;0.57;;;;;;;;;;1775132;79;26329;-37
2022/02/05 14:43:50;;;;;;;5.05;1.10;;;;;;;;;;1804350;78;26321;-38
2022/02/05 14:46:17;;;;;;;1.80;0.68;;;;;;;;;;1804501;78;26282;-37
2022/02/05 14:48:45;;;;;;;0.50;0.50;;;;;;;;;;1798141;79;26682;-37
2022/02/05 14:51:12;;;;;;;1.20;0.50;;;;;;;;;;1811640;78;26779;-37
2022/02/05 14:53:39;;;;;;;1.15;0.60;;;;;;;;;;1808967;78;26723;-38
2022/02/05 14:56:06;;;;;;;0.60;0.60;;;;;;;;;;1817412;78;26208;-37
2022/02/05 14:58:34;;;;;;;0.72;0.60;;;;;;;;;;1801513;79;26297;-36
2022/02/05 15:01:05;;;;;;;0.50;0.50;;;;;;;;;;1812826;78;26400;-36
2022/02/05 15:03:33;;;;;;;0.80;0.60;;;;;;;;;;1808926;79;26707;-38
2022/02/05 15:06:04;;;;;;;3.12;0.80;;;;;;;;;;1805668;79;26833;-38
2022/02/05 15:08:28;;;;;;;3.12;0.95;;;;;;;;;;1811365;79;26295;-36
2022/02/05 15:10:55;;;;;;;0.50;0.50;;;;;;;;;;1820468;78;26333;-36
2022/02/05 15:13:22;;;;;;;0.93;0.50;;;;;;;;;;1813260;78;26306;-37
2022/02/05 15:15:52;;;;;;;0.95;0.60;;;;;;;;;;1798766;78;26296;-37
2022/02/05 15:18:18;;;;;;;0.60;0.60;;;;;;;;;;1823780;77;26255;-37
2022/02/05 15:20:46;;;;;;;1.30;0.70;;;;;;;;;;1807204;77;26224;-36
2022/02/05 15:23:13;;;;;;;0.75;0.60;;;;;;;;;;1812080;78;26226;-36
2022/02/05 15:25:41;;;;;;;2.25;0.88;;;;;;;;;;1796294;78;26737;-37
2022/02/05 15:28:08;;;;;;;1.70;0.70;;;;;;;;;;1805127;78;26212;-38
2022/02/05 15:30:35;;;;;;;2.80;0.70;;;;;;;;;;1798183;78;26274;-37
2022/02/05 15:33:03;;;;;;;5.40;1.12;;;;;;;;;;1799029;80;26799;-38
2022/02/05 15:35:32;;;;;;;2.67;0.70;;;;;;;;;;1828959;77;26236;-37
2022/02/05 15:38:08;;;;;;;2.30;0.93;;;;;;;;;;1830565;77;26321;-41
2022/02/05 15:43:55;;;;;;;1.87;0.95;;;;;;;;;;1821713;77;26286;-37
2022/02/05 15:45:45;;;;;;;6.53;1.12;;;;;;;;;;1816518;77;26259;-37
2022/02/05 15:48:13;;;;;;;2.35;1.05;;;;;;;;;;1823056;78;26377;-37
2022/02/05 15:50:40;;;;;;;7.35;0.88;;;;;;;;;;1821832;78;26288;-38
2022/02/05 15:53:09;;;;;;;1.52;1.02;;;;;;;;;;1823320;78;26303;-39
2022/02/05 15:55:38;;;;;;;4.22;0.90;;;;;;;;;;1820871;77;26294;-38
2022/02/05 15:58:11;;;;;;;1.37;0.93;;;;;;;;;;1805929;77;26734;-38
2022/02/05 16:00:39;;;;;;;3.17;0.90;;;;;;;;;;1814533;78;26314;-37
2022/02/05 16:03:07;;;;;;;3.02;1.15;;;;;;;;;;1824146;78;26366;-38
2022/02/05 16:05:35;;;;;;;4.10;1.00;;;;;;;;;;1824337;78;26365;-39
2022/02/05 16:08:03;;;;;;;1.00;0.90;;;;;;;;;;1824582;77;26287;-39
2022/02/05 16:10:30;;;;;;;2.37;1.07;;;;;;;;;;1824630;78;26298;-40
2022/02/05 16:12:58;;;;;;;1.90;0.90;;;;;;;;;;1816837;77;26342;-39
2022/02/05 16:15:25;;;;;;;3.05;0.90;;;;;;;;;;1813338;77;26819;-39
2022/02/05 16:17:53;;;;;;;3.00;0.95;;;;;;;;;;1810637;77;26348;-38
2022/02/05 16:20:22;;;;;;;2.90;0.88;;;;;;;;;;1810470;78;26225;-36
2022/02/05 16:22:49;;;;;;;1.00;0.90;;;;;;;;;;1828600;77;26718;-36
2022/02/05 16:25:21;;;;;;;2.27;0.82;;;;;;;;;;1827845;78;25230;-37
2022/02/05 16:27:50;;;;;;;2.05;1.05;;;;;;;;;;1824816;77;26416;-36
2022/02/05 16:30:15;;;;;;;3.87;0.98;;;;;;;;;;1800467;78;26218;-37
2022/02/05 16:32:42;;;;;;;1.60;0.68;;;;;;;;;;1830594;77;26794;-37
2022/02/05 16:35:12;;;;;;;1.42;0.90;;;;;;;;;;1828253;77;26279;-37
2022/02/05 16:37:41;;;;;;;2.12;0.78;;;;;;;;;;1828137;77;26290;-37
2022/02/05 16:40:11;;;;;;;1.92;0.90;;;;;;;;;;1839819;77;26348;-38
2022/02/05 16:42:40;;;;;;;6.45;1.00;;;;;;;;;;1823028;77;26750;-37
2022/02/05 16:45:08;;;;;;;2.25;0.60;;;;;;;;;;1834534;77;26466;-36
2022/02/05 16:47:36;;;;;;;3.50;0.70;;;;;;;;;;1823455;77;26667;-37
2022/02/05 16:50:04;;;;;;;1.10;0.70;;;;;;;;;;1833590;77;26485;-37
2022/02/05 16:52:32;;;;;;;1.17;0.80;;;;;;;;;;1833463;77;26907;-38
2022/02/05 16:54:59;;;;;;;2.17;0.80;;;;;;;;;;1821459;77;26789;-38
2022/02/05 16:57:26;;;;;;;0.60;0.60;;;;;;;;;;1825673;77;26254;-38
2022/02/05 16:59:54;;;;;;;1.45;0.80;;;;;;;;;;1829412;78;26339;-38
2022/02/05 17:02:22;;;;;;;0.70;0.70;;;;;;;;;;1836905;77;26333;-38
2022/02/05 17:04:49;;;;;;;1.37;0.57;;;;;;;;;;1826853;77;26771;-39
2022/02/05 17:07:16;;;;;;;1.67;0.70;;;;;;;;;;1809525;77;26301;-37
2022/02/05 17:09:51;;;;;;;1.57;0.62;;;;;;;;;;1827170;77;26305;-38
2022/02/05 17:12:14;;;;;;;0.80;0.80;;;;;;;;;;1821862;77;26353;-38
2022/02/05 17:14:42;;;;;;;1.20;0.80;;;;;;;;;;1823148;77;26325;-38
2022/02/05 17:17:13;;;;;;;0.62;0.62;;;;;;;;;;1826443;77;26318;-38
2022/02/05 17:19:42;;;;;;;0.70;0.70;;;;;;;;;;1818327;77;26306;-38
2022/02/05 17:22:08;;;;;;;0.82;0.65;;;;;;;;;;1817628;77;26345;-37
2022/02/05 17:24:35;;;;;;;0.68;0.68;;;;;;;;;;1827755;77;26303;-38